sensor_id;sensor_type;location;lat;lon;timestamp;P1;durP1;ratioP1;P2;durP2;ratioP2
73454;SDS011;61690;51.824;6.306;2023-06-14T00:01:34;8.13;;;4.90;;
73454;SDS011;61690;51.824;6.306;2023-06-14T00:04:00;8.90;;;4.47;;
73454;SDS011;61690;51.824;6.306;2023-06-14T00:06:26;8.13;;;4.37;;
73454;SDS011;61690;51.824;6.306;2023-06-14T00:08:55;8.35;;;4.20;;
73454;SDS011;61690;51.824;6.306;2023-06-14T00:11:20;9.57;;;4.38;;
73454;SDS011;61690;51.824;6.306;2023-06-14T00:13:45;8.53;;;4.47;;
73454;SDS011;61690;51.824;6.306;2023-06-14T00:16:11;9.68;;;4.70;;
73454;SDS011;61690;51.824;6.306;2023-06-14T00:18:37;8.97;;;4.60;;
73454;SDS011;61690;51.824;6.306;2023-06-14T00:21:03;7.35;;;4.00;;
73454;SDS011;61690;51.824;6.306;2023-06-14T00:23:29;7.95;;;4.40;;
73454;SDS011;61690;51.824;6.306;2023-06-14T00:25:54;12.83;;;4.40;;
73454;SDS011;61690;51.824;6.306;2023-06-14T00:28:20;6.63;;;3.70;;
73454;SDS011;61690;51.824;6.306;2023-06-14T00:30:45;7.78;;;4.55;;
73454;SDS011;61690;51.824;6.306;2023-06-14T00:33:11;8.73;;;4.47;;
73454;SDS011;61690;51.824;6.306;2023-06-14T00:35:37;9.45;;;4.32;;
73454;SDS011;61690;51.824;6.306;2023-06-14T00:38:02;6.97;;;3.77;;
73454;SDS011;61690;51.824;6.306;2023-06-14T00:40:28;8.63;;;4.20;;
73454;SDS011;61690;51.824;6.306;2023-06-14T00:42:53;8.43;;;4.03;;
73454;SDS011;61690;51.824;6.306;2023-06-14T00:45:19;9.77;;;4.57;;
73454;SDS011;61690;51.824;6.306;2023-06-14T00:47:44;11.73;;;4.17;;
73454;SDS011;61690;51.824;6.306;2023-06-14T00:50:10;8.80;;;4.45;;
73454;SDS011;61690;51.824;6.306;2023-06-14T00:52:36;7.00;;;4.20;;
73454;SDS011;61690;51.824;6.306;2023-06-14T00:55:02;7.63;;;4.20;;
73454;SDS011;61690;51.824;6.306;2023-06-14T00:57:28;8.20;;;4.07;;
73454;SDS011;61690;51.824;6.306;2023-06-14T00:59:54;7.90;;;3.90;;
73454;SDS011;61690;51.824;6.306;2023-06-14T01:02:20;7.68;;;3.80;;
73454;SDS011;61690;51.824;6.306;2023-06-14T01:04:46;7.00;;;4.20;;
73454;SDS011;61690;51.824;6.306;2023-06-14T01:10:15;7.75;;;4.05;;
73454;SDS011;61690;51.824;6.306;2023-06-14T01:13:03;6.35;;;3.80;;
73454;SDS011;61690;51.824;6.306;2023-06-14T01:15:33;8.00;;;4.10;;
73454;SDS011;61690;51.824;6.306;2023-06-14T01:18:00;7.17;;;3.80;;
73454;SDS011;61690;51.824;6.306;2023-06-14T01:20:31;8.88;;;3.40;;
73454;SDS011;61690;51.824;6.306;2023-06-14T01:22:58;6.45;;;3.53;;
73454;SDS011;61690;51.824;6.306;2023-06-14T01:25:24;6.70;;;3.40;;
73454;SDS011;61690;51.824;6.306;2023-06-14T01:27:52;8.15;;;3.88;;
73454;SDS011;61690;51.824;6.306;2023-06-14T01:30:20;7.00;;;3.67;;
73454;SDS011;61690;51.824;6.306;2023-06-14T01:32:48;7.05;;;3.60;;
73454;SDS011;61690;51.824;6.306;2023-06-14T01:35:15;8.02;;;3.72;;
73454;SDS011;61690;51.824;6.306;2023-06-14T01:37:41;8.93;;;3.60;;
73454;SDS011;61690;51.824;6.306;2023-06-14T01:40:08;8.03;;;3.43;;
73454;SDS011;61690;51.824;6.306;2023-06-14T01:42:35;7.43;;;3.47;;
73454;SDS011;61690;51.824;6.306;2023-06-14T01:45:03;6.97;;;3.63;;
73454;SDS011;61690;51.824;6.306;2023-06-14T01:47:31;7.72;;;3.60;;
73454;SDS011;61690;51.824;6.306;2023-06-14T01:49:57;6.95;;;3.70;;
73454;SDS011;61690;51.824;6.306;2023-06-14T01:52:23;7.80;;;3.57;;
73454;SDS011;61690;51.824;6.306;2023-06-14T01:54:49;7.97;;;3.60;;
73454;SDS011;61690;51.824;6.306;2023-06-14T01:57:15;6.60;;;3.33;;
73454;SDS011;61690;51.824;6.306;2023-06-14T01:59:41;7.80;;;3.83;;
73454;SDS011;61690;51.824;6.306;2023-06-14T02:02:06;8.47;;;3.67;;
73454;SDS011;61690;51.824;6.306;2023-06-14T02:04:31;7.67;;;3.60;;
73454;SDS011;61690;51.824;6.306;2023-06-14T02:06:56;6.27;;;3.50;;
73454;SDS011;61690;51.824;6.306;2023-06-14T02:09:22;9.27;;;3.93;;
73454;SDS011;61690;51.824;6.306;2023-06-14T02:11:48;7.65;;;3.70;;
73454;SDS011;61690;51.824;6.306;2023-06-14T02:14:14;7.33;;;3.53;;
73454;SDS011;61690;51.824;6.306;2023-06-14T02:16:39;7.47;;;3.53;;
73454;SDS011;61690;51.824;6.306;2023-06-14T02:19:05;8.73;;;4.00;;
73454;SDS011;61690;51.824;6.306;2023-06-14T02:21:30;7.57;;;3.60;;
73454;SDS011;61690;51.824;6.306;2023-06-14T02:23:56;7.57;;;3.77;;
73454;SDS011;61690;51.824;6.306;2023-06-14T02:26:21;8.23;;;3.53;;
73454;SDS011;61690;51.824;6.306;2023-06-14T02:28:47;8.27;;;3.70;;
73454;SDS011;61690;51.824;6.306;2023-06-14T02:31:13;8.65;;;3.40;;
73454;SDS011;61690;51.824;6.306;2023-06-14T02:33:38;7.50;;;3.30;;
73454;SDS011;61690;51.824;6.306;2023-06-14T02:36:04;8.67;;;3.67;;
73454;SDS011;61690;51.824;6.306;2023-06-14T02:38:29;7.97;;;3.78;;
73454;SDS011;61690;51.824;6.306;2023-06-14T02:40:55;8.50;;;3.47;;
73454;SDS011;61690;51.824;6.306;2023-06-14T02:43:20;7.60;;;3.70;;
73454;SDS011;61690;51.824;6.306;2023-06-14T02:45:45;6.47;;;3.47;;
73454;SDS011;61690;51.824;6.306;2023-06-14T02:48:11;7.43;;;3.50;;
73454;SDS011;61690;51.824;6.306;2023-06-14T02:50:36;6.77;;;3.40;;
73454;SDS011;61690;51.824;6.306;2023-06-14T02:53:01;7.15;;;3.60;;
73454;SDS011;61690;51.824;6.306;2023-06-14T02:55:28;8.00;;;3.50;;
73454;SDS011;61690;51.824;6.306;2023-06-14T02:57:53;6.40;;;3.28;;
73454;SDS011;61690;51.824;6.306;2023-06-14T03:00:19;8.50;;;3.60;;
73454;SDS011;61690;51.824;6.306;2023-06-14T03:02:45;8.43;;;3.30;;
73454;SDS011;61690;51.824;6.306;2023-06-14T03:05:10;7.07;;;3.27;;
73454;SDS011;61690;51.824;6.306;2023-06-14T03:07:36;8.57;;;4.00;;
73454;SDS011;61690;51.824;6.306;2023-06-14T03:10:06;9.77;;;3.50;;
73454;SDS011;61690;51.824;6.306;2023-06-14T03:12:35;8.45;;;3.40;;
73454;SDS011;61690;51.824;6.306;2023-06-14T03:15:01;7.20;;;3.30;;
73454;SDS011;61690;51.824;6.306;2023-06-14T03:17:27;6.50;;;3.07;;
73454;SDS011;61690;51.824;6.306;2023-06-14T03:19:54;6.80;;;3.40;;
73454;SDS011;61690;51.824;6.306;2023-06-14T03:22:20;7.00;;;3.07;;
73454;SDS011;61690;51.824;6.306;2023-06-14T03:24:46;8.23;;;3.60;;
73454;SDS011;61690;51.824;6.306;2023-06-14T03:27:12;7.50;;;3.60;;
73454;SDS011;61690;51.824;6.306;2023-06-14T03:29:37;7.30;;;3.10;;
73454;SDS011;61690;51.824;6.306;2023-06-14T03:32:03;8.33;;;3.70;;
73454;SDS011;61690;51.824;6.306;2023-06-14T03:34:28;7.55;;;3.55;;
73454;SDS011;61690;51.824;6.306;2023-06-14T03:36:54;7.93;;;3.43;;
73454;SDS011;61690;51.824;6.306;2023-06-14T03:39:20;7.30;;;3.40;;
73454;SDS011;61690;51.824;6.306;2023-06-14T03:41:45;10.30;;;3.60;;
73454;SDS011;61690;51.824;6.306;2023-06-14T03:44:11;7.47;;;3.30;;
73454;SDS011;61690;51.824;6.306;2023-06-14T03:46:36;7.80;;;3.30;;
73454;SDS011;61690;51.824;6.306;2023-06-14T03:49:01;8.60;;;3.50;;
73454;SDS011;61690;51.824;6.306;2023-06-14T03:51:27;8.88;;;3.60;;
73454;SDS011;61690;51.824;6.306;2023-06-14T03:53:53;9.40;;;3.70;;
73454;SDS011;61690;51.824;6.306;2023-06-14T03:56:19;8.18;;;3.45;;
73454;SDS011;61690;51.824;6.306;2023-06-14T03:58:44;9.73;;;3.70;;
73454;SDS011;61690;51.824;6.306;2023-06-14T04:01:09;8.23;;;3.20;;
73454;SDS011;61690;51.824;6.306;2023-06-14T04:03:37;6.68;;;3.60;;
73454;SDS011;61690;51.824;6.306;2023-06-14T04:06:02;8.33;;;3.33;;
73454;SDS011;61690;51.824;6.306;2023-06-14T04:08:29;6.65;;;3.42;;
73454;SDS011;61690;51.824;6.306;2023-06-14T04:10:54;7.07;;;3.30;;
73454;SDS011;61690;51.824;6.306;2023-06-14T04:13:20;6.83;;;3.23;;
73454;SDS011;61690;51.824;6.306;2023-06-14T04:15:45;9.57;;;3.63;;
73454;SDS011;61690;51.824;6.306;2023-06-14T04:18:10;6.70;;;3.40;;
73454;SDS011;61690;51.824;6.306;2023-06-14T04:20:36;7.03;;;3.50;;
73454;SDS011;61690;51.824;6.306;2023-06-14T04:23:11;6.53;;;3.30;;
73454;SDS011;61690;51.824;6.306;2023-06-14T04:25:39;6.93;;;3.03;;
73454;SDS011;61690;51.824;6.306;2023-06-14T04:28:05;9.02;;;3.75;;
73454;SDS011;61690;51.824;6.306;2023-06-14T04:30:30;6.90;;;3.23;;
73454;SDS011;61690;51.824;6.306;2023-06-14T04:32:56;7.87;;;3.50;;
73454;SDS011;61690;51.824;6.306;2023-06-14T04:35:22;8.32;;;3.60;;
73454;SDS011;61690;51.824;6.306;2023-06-14T04:37:49;7.45;;;3.63;;
73454;SDS011;61690;51.824;6.306;2023-06-14T04:40:14;7.90;;;3.77;;
73454;SDS011;61690;51.824;6.306;2023-06-14T04:42:40;9.77;;;3.83;;
73454;SDS011;61690;51.824;6.306;2023-06-14T04:45:06;11.75;;;3.85;;
73454;SDS011;61690;51.824;6.306;2023-06-14T04:47:32;7.70;;;3.50;;
73454;SDS011;61690;51.824;6.306;2023-06-14T04:49:57;7.83;;;3.90;;
73454;SDS011;61690;51.824;6.306;2023-06-14T04:52:23;6.93;;;3.57;;
73454;SDS011;61690;51.824;6.306;2023-06-14T04:54:51;6.95;;;3.50;;
73454;SDS011;61690;51.824;6.306;2023-06-14T04:57:17;8.23;;;3.80;;
73454;SDS011;61690;51.824;6.306;2023-06-14T04:59:47;7.00;;;3.60;;
73454;SDS011;61690;51.824;6.306;2023-06-14T05:02:12;7.32;;;3.78;;
73454;SDS011;61690;51.824;6.306;2023-06-14T05:04:38;7.60;;;3.50;;
73454;SDS011;61690;51.824;6.306;2023-06-14T05:07:06;7.25;;;3.20;;
73454;SDS011;61690;51.824;6.306;2023-06-14T05:09:32;9.30;;;3.25;;
73454;SDS011;61690;51.824;6.306;2023-06-14T05:11:58;7.88;;;3.30;;
73454;SDS011;61690;51.824;6.306;2023-06-14T05:14:25;7.83;;;3.40;;
73454;SDS011;61690;51.824;6.306;2023-06-14T05:16:50;5.93;;;3.25;;
73454;SDS011;61690;51.824;6.306;2023-06-14T05:19:16;6.43;;;3.47;;
73454;SDS011;61690;51.824;6.306;2023-06-14T05:21:42;5.43;;;2.80;;
73454;SDS011;61690;51.824;6.306;2023-06-14T05:24:08;8.03;;;3.20;;
73454;SDS011;61690;51.824;6.306;2023-06-14T05:26:34;6.63;;;3.30;;
73454;SDS011;61690;51.824;6.306;2023-06-14T05:29:00;10.53;;;3.23;;
73454;SDS011;61690;51.824;6.306;2023-06-14T05:31:26;12.88;;;3.70;;
73454;SDS011;61690;51.824;6.306;2023-06-14T05:33:53;8.43;;;3.00;;
73454;SDS011;61690;51.824;6.306;2023-06-14T05:36:19;7.88;;;3.65;;
73454;SDS011;61690;51.824;6.306;2023-06-14T05:38:46;7.53;;;3.10;;
73454;SDS011;61690;51.824;6.306;2023-06-14T05:41:11;6.93;;;3.53;;
73454;SDS011;61690;51.824;6.306;2023-06-14T05:43:36;9.83;;;3.57;;
73454;SDS011;61690;51.824;6.306;2023-06-14T05:46:02;8.13;;;3.43;;
73454;SDS011;61690;51.824;6.306;2023-06-14T05:48:28;7.53;;;3.20;;
73454;SDS011;61690;51.824;6.306;2023-06-14T05:50:53;9.13;;;3.70;;
73454;SDS011;61690;51.824;6.306;2023-06-14T05:53:19;7.20;;;3.00;;
73454;SDS011;61690;51.824;6.306;2023-06-14T05:55:44;8.93;;;3.20;;
73454;SDS011;61690;51.824;6.306;2023-06-14T05:58:09;11.67;;;3.20;;
73454;SDS011;61690;51.824;6.306;2023-06-14T06:00:35;8.20;;;3.10;;
73454;SDS011;61690;51.824;6.306;2023-06-14T06:03:01;7.28;;;3.30;;
73454;SDS011;61690;51.824;6.306;2023-06-14T06:05:26;6.90;;;3.07;;
73454;SDS011;61690;51.824;6.306;2023-06-14T06:07:52;10.27;;;3.70;;
73454;SDS011;61690;51.824;6.306;2023-06-14T06:10:17;5.80;;;3.20;;
73454;SDS011;61690;51.824;6.306;2023-06-14T06:12:42;6.63;;;3.23;;
73454;SDS011;61690;51.824;6.306;2023-06-14T06:15:08;7.60;;;3.40;;
73454;SDS011;61690;51.824;6.306;2023-06-14T06:17:37;6.43;;;3.10;;
73454;SDS011;61690;51.824;6.306;2023-06-14T06:20:02;7.20;;;3.30;;
73454;SDS011;61690;51.824;6.306;2023-06-14T06:22:28;7.03;;;3.33;;
73454;SDS011;61690;51.824;6.306;2023-06-14T06:24:53;8.00;;;3.27;;
73454;SDS011;61690;51.824;6.306;2023-06-14T06:27:19;6.60;;;3.40;;
73454;SDS011;61690;51.824;6.306;2023-06-14T06:29:45;5.23;;;3.00;;
73454;SDS011;61690;51.824;6.306;2023-06-14T06:32:10;5.88;;;2.90;;
73454;SDS011;61690;51.824;6.306;2023-06-14T06:34:36;5.97;;;3.23;;
73454;SDS011;61690;51.824;6.306;2023-06-14T06:37:02;7.78;;;2.97;;
73454;SDS011;61690;51.824;6.306;2023-06-14T06:39:27;7.97;;;2.73;;
73454;SDS011;61690;51.824;6.306;2023-06-14T06:41:53;8.03;;;2.90;;
73454;SDS011;61690;51.824;6.306;2023-06-14T06:44:18;7.20;;;2.80;;
73454;SDS011;61690;51.824;6.306;2023-06-14T06:46:43;11.70;;;3.00;;
73454;SDS011;61690;51.824;6.306;2023-06-14T06:49:09;13.83;;;3.20;;
73454;SDS011;61690;51.824;6.306;2023-06-14T06:51:36;5.82;;;2.70;;
73454;SDS011;61690;51.824;6.306;2023-06-14T06:54:02;10.37;;;2.90;;
73454;SDS011;61690;51.824;6.306;2023-06-14T06:56:27;8.68;;;3.05;;
73454;SDS011;61690;51.824;6.306;2023-06-14T06:58:53;7.37;;;2.73;;
73454;SDS011;61690;51.824;6.306;2023-06-14T07:01:18;10.77;;;2.73;;
73454;SDS011;61690;51.824;6.306;2023-06-14T07:03:44;12.50;;;2.80;;
73454;SDS011;61690;51.824;6.306;2023-06-14T07:06:10;11.38;;;2.97;;
73454;SDS011;61690;51.824;6.306;2023-06-14T07:08:35;15.40;;;2.70;;
73454;SDS011;61690;51.824;6.306;2023-06-14T07:11:03;11.60;;;2.90;;
73454;SDS011;61690;51.824;6.306;2023-06-14T07:13:29;10.67;;;2.80;;
73454;SDS011;61690;51.824;6.306;2023-06-14T07:15:54;13.15;;;3.10;;
73454;SDS011;61690;51.824;6.306;2023-06-14T07:18:23;8.30;;;2.53;;
73454;SDS011;61690;51.824;6.306;2023-06-14T07:20:48;7.67;;;2.77;;
73454;SDS011;61690;51.824;6.306;2023-06-14T07:23:13;6.25;;;2.75;;
73454;SDS011;61690;51.824;6.306;2023-06-14T07:25:39;11.50;;;2.63;;
73454;SDS011;61690;51.824;6.306;2023-06-14T07:28:04;9.53;;;2.70;;
73454;SDS011;61690;51.824;6.306;2023-06-14T07:30:30;10.47;;;2.83;;
73454;SDS011;61690;51.824;6.306;2023-06-14T07:32:56;9.32;;;2.72;;
73454;SDS011;61690;51.824;6.306;2023-06-14T07:35:21;8.73;;;2.67;;
73454;SDS011;61690;51.824;6.306;2023-06-14T07:37:47;9.32;;;2.70;;
73454;SDS011;61690;51.824;6.306;2023-06-14T07:40:12;9.43;;;2.53;;
73454;SDS011;61690;51.824;6.306;2023-06-14T07:42:38;10.80;;;2.73;;
73454;SDS011;61690;51.824;6.306;2023-06-14T07:45:04;6.43;;;2.45;;
73454;SDS011;61690;51.824;6.306;2023-06-14T07:47:30;7.17;;;2.80;;
73454;SDS011;61690;51.824;6.306;2023-06-14T07:49:55;8.43;;;2.97;;
73454;SDS011;61690;51.824;6.306;2023-06-14T07:52:20;6.60;;;2.72;;
73454;SDS011;61690;51.824;6.306;2023-06-14T07:54:46;10.37;;;2.70;;
73454;SDS011;61690;51.824;6.306;2023-06-14T07:57:11;7.13;;;2.60;;
73454;SDS011;61690;51.824;6.306;2023-06-14T07:59:36;9.07;;;2.80;;
73454;SDS011;61690;51.824;6.306;2023-06-14T08:02:02;7.70;;;2.60;;
73454;SDS011;61690;51.824;6.306;2023-06-14T08:04:27;7.60;;;2.80;;
73454;SDS011;61690;51.824;6.306;2023-06-14T08:06:52;7.40;;;2.60;;
73454;SDS011;61690;51.824;6.306;2023-06-14T08:09:18;7.57;;;2.67;;
73454;SDS011;61690;51.824;6.306;2023-06-14T08:11:44;5.13;;;2.43;;
73454;SDS011;61690;51.824;6.306;2023-06-14T08:14:09;9.18;;;2.90;;
73454;SDS011;61690;51.824;6.306;2023-06-14T08:16:35;6.97;;;2.50;;
73454;SDS011;61690;51.824;6.306;2023-06-14T08:19:00;6.57;;;3.07;;
73454;SDS011;61690;51.824;6.306;2023-06-14T08:21:25;7.53;;;3.03;;
73454;SDS011;61690;51.824;6.306;2023-06-14T08:23:54;9.80;;;2.85;;
73454;SDS011;61690;51.824;6.306;2023-06-14T08:26:19;7.82;;;3.10;;
73454;SDS011;61690;51.824;6.306;2023-06-14T08:28:45;5.30;;;2.90;;
73454;SDS011;61690;51.824;6.306;2023-06-14T08:31:11;7.97;;;2.80;;
73454;SDS011;61690;51.824;6.306;2023-06-14T08:33:36;7.40;;;2.97;;
73454;SDS011;61690;51.824;6.306;2023-06-14T08:36:01;6.60;;;3.33;;
73454;SDS011;61690;51.824;6.306;2023-06-14T08:38:27;5.63;;;2.90;;
73454;SDS011;61690;51.824;6.306;2023-06-14T08:40:52;5.57;;;3.03;;
73454;SDS011;61690;51.824;6.306;2023-06-14T08:43:21;7.32;;;2.85;;
73454;SDS011;61690;51.824;6.306;2023-06-14T08:45:47;7.20;;;3.20;;
73454;SDS011;61690;51.824;6.306;2023-06-14T08:48:14;7.22;;;2.85;;
73454;SDS011;61690;51.824;6.306;2023-06-14T08:50:42;9.30;;;3.22;;
73454;SDS011;61690;51.824;6.306;2023-06-14T08:53:08;7.55;;;3.33;;
73454;SDS011;61690;51.824;6.306;2023-06-14T08:55:44;5.32;;;2.90;;
73454;SDS011;61690;51.824;6.306;2023-06-14T08:58:10;6.27;;;3.20;;
73454;SDS011;61690;51.824;6.306;2023-06-14T09:00:40;6.43;;;2.55;;
73454;SDS011;61690;51.824;6.306;2023-06-14T09:03:07;6.05;;;2.95;;
73454;SDS011;61690;51.824;6.306;2023-06-14T09:05:38;6.75;;;2.88;;
73454;SDS011;61690;51.824;6.306;2023-06-14T09:08:03;7.27;;;2.90;;
73454;SDS011;61690;51.824;6.306;2023-06-14T09:10:30;5.50;;;2.75;;
73454;SDS011;61690;51.824;6.306;2023-06-14T09:12:58;5.35;;;2.80;;
73454;SDS011;61690;51.824;6.306;2023-06-14T09:15:25;7.57;;;2.83;;
73454;SDS011;61690;51.824;6.306;2023-06-14T09:17:51;5.10;;;2.70;;
73454;SDS011;61690;51.824;6.306;2023-06-14T09:20:16;5.90;;;2.87;;
73454;SDS011;61690;51.824;6.306;2023-06-14T09:22:44;5.18;;;2.80;;
73454;SDS011;61690;51.824;6.306;2023-06-14T09:25:10;5.40;;;2.78;;
73454;SDS011;61690;51.824;6.306;2023-06-14T09:27:38;5.43;;;2.90;;
73454;SDS011;61690;51.824;6.306;2023-06-14T09:30:05;5.68;;;2.70;;
73454;SDS011;61690;51.824;6.306;2023-06-14T09:32:35;6.38;;;3.17;;
73454;SDS011;61690;51.824;6.306;2023-06-14T09:35:02;6.65;;;3.08;;
73454;SDS011;61690;51.824;6.306;2023-06-14T09:37:28;6.33;;;2.50;;
73454;SDS011;61690;51.824;6.306;2023-06-14T09:39:54;7.35;;;2.45;;
73454;SDS011;61690;51.824;6.306;2023-06-14T09:42:20;7.97;;;2.58;;
73454;SDS011;61690;51.824;6.306;2023-06-14T09:44:49;5.23;;;2.90;;
73454;SDS011;61690;51.824;6.306;2023-06-14T09:47:15;5.50;;;2.80;;
73454;SDS011;61690;51.824;6.306;2023-06-14T09:49:41;7.10;;;2.53;;
73454;SDS011;61690;51.824;6.306;2023-06-14T09:52:07;5.75;;;2.50;;
73454;SDS011;61690;51.824;6.306;2023-06-14T09:54:37;5.05;;;2.72;;
73454;SDS011;61690;51.824;6.306;2023-06-14T09:57:07;4.95;;;2.80;;
73454;SDS011;61690;51.824;6.306;2023-06-14T09:59:35;7.35;;;2.60;;
73454;SDS011;61690;51.824;6.306;2023-06-14T10:02:03;7.93;;;2.90;;
73454;SDS011;61690;51.824;6.306;2023-06-14T10:04:34;5.22;;;2.42;;
73454;SDS011;61690;51.824;6.306;2023-06-14T10:06:59;6.20;;;2.90;;
73454;SDS011;61690;51.824;6.306;2023-06-14T10:09:26;5.85;;;2.90;;
73454;SDS011;61690;51.824;6.306;2023-06-14T10:11:51;7.30;;;2.30;;
73454;SDS011;61690;51.824;6.306;2023-06-14T10:14:17;4.82;;;2.55;;
73454;SDS011;61690;51.824;6.306;2023-06-14T10:19:47;5.40;;;2.65;;
73454;SDS011;61690;51.824;6.306;2023-06-14T10:22:18;4.55;;;2.45;;
73454;SDS011;61690;51.824;6.306;2023-06-14T10:24:50;6.40;;;2.42;;
73454;SDS011;61690;51.824;6.306;2023-06-14T10:27:15;5.07;;;2.43;;
73454;SDS011;61690;51.824;6.306;2023-06-14T10:30:04;5.32;;;2.70;;
73454;SDS011;61690;51.824;6.306;2023-06-14T10:32:29;6.13;;;2.60;;
73454;SDS011;61690;51.824;6.306;2023-06-14T10:35:06;5.80;;;2.53;;
73454;SDS011;61690;51.824;6.306;2023-06-14T10:37:32;5.17;;;2.43;;
73454;SDS011;61690;51.824;6.306;2023-06-14T10:39:58;5.03;;;2.40;;
73454;SDS011;61690;51.824;6.306;2023-06-14T10:42:27;5.27;;;2.47;;
73454;SDS011;61690;51.824;6.306;2023-06-14T10:44:56;5.70;;;2.72;;
73454;SDS011;61690;51.824;6.306;2023-06-14T10:47:26;5.00;;;2.80;;
73454;SDS011;61690;51.824;6.306;2023-06-14T10:50:03;5.72;;;2.50;;
73454;SDS011;61690;51.824;6.306;2023-06-14T10:52:29;4.70;;;2.60;;
73454;SDS011;61690;51.824;6.306;2023-06-14T10:57:36;5.55;;;2.70;;
73454;SDS011;61690;51.824;6.306;2023-06-14T11:00:04;5.43;;;2.50;;
73454;SDS011;61690;51.824;6.306;2023-06-14T11:10:45;6.20;;;2.40;;
73454;SDS011;61690;51.824;6.306;2023-06-14T11:13:12;5.47;;;2.47;;
73454;SDS011;61690;51.824;6.306;2023-06-14T11:15:38;4.82;;;2.33;;
73454;SDS011;61690;51.824;6.306;2023-06-14T11:18:08;5.38;;;2.50;;
73454;SDS011;61690;51.824;6.306;2023-06-14T11:20:35;5.00;;;2.90;;
73454;SDS011;61690;51.824;6.306;2023-06-14T11:23:02;5.68;;;2.75;;
73454;SDS011;61690;51.824;6.306;2023-06-14T11:25:29;6.70;;;3.17;;
73454;SDS011;61690;51.824;6.306;2023-06-14T11:27:54;6.80;;;2.87;;
73454;SDS011;61690;51.824;6.306;2023-06-14T11:30:20;4.80;;;2.40;;
73454;SDS011;61690;51.824;6.306;2023-06-14T11:32:47;6.57;;;2.80;;
73454;SDS011;61690;51.824;6.306;2023-06-14T11:35:13;6.97;;;2.88;;
73454;SDS011;61690;51.824;6.306;2023-06-14T11:37:38;6.97;;;2.90;;
73454;SDS011;61690;51.824;6.306;2023-06-14T11:40:06;5.60;;;2.75;;
73454;SDS011;61690;51.824;6.306;2023-06-14T11:42:38;4.78;;;2.60;;
73454;SDS011;61690;51.824;6.306;2023-06-14T11:45:07;7.90;;;2.90;;
73454;SDS011;61690;51.824;6.306;2023-06-14T11:47:35;6.50;;;2.63;;
73454;SDS011;61690;51.824;6.306;2023-06-14T11:50:01;6.40;;;2.38;;
73454;SDS011;61690;51.824;6.306;2023-06-14T11:52:27;6.03;;;2.33;;
73454;SDS011;61690;51.824;6.306;2023-06-14T11:54:52;4.97;;;2.53;;
73454;SDS011;61690;51.824;6.306;2023-06-14T11:57:18;6.32;;;2.45;;
73454;SDS011;61690;51.824;6.306;2023-06-14T11:59:44;6.65;;;2.90;;
73454;SDS011;61690;51.824;6.306;2023-06-14T12:02:13;5.00;;;2.50;;
73454;SDS011;61690;51.824;6.306;2023-06-14T12:04:49;5.70;;;2.90;;
73454;SDS011;61690;51.824;6.306;2023-06-14T12:07:14;4.85;;;2.30;;
73454;SDS011;61690;51.824;6.306;2023-06-14T12:09:42;5.22;;;2.28;;
73454;SDS011;61690;51.824;6.306;2023-06-14T12:12:13;4.85;;;2.42;;
73454;SDS011;61690;51.824;6.306;2023-06-14T12:14:41;4.97;;;2.70;;
73454;SDS011;61690;51.824;6.306;2023-06-14T12:17:06;5.43;;;2.43;;
73454;SDS011;61690;51.824;6.306;2023-06-14T12:19:32;5.38;;;2.60;;
73454;SDS011;61690;51.824;6.306;2023-06-14T12:22:00;4.57;;;2.67;;
73454;SDS011;61690;51.824;6.306;2023-06-14T12:24:29;4.60;;;2.60;;
73454;SDS011;61690;51.824;6.306;2023-06-14T12:26:56;4.50;;;2.30;;
73454;SDS011;61690;51.824;6.306;2023-06-14T12:29:24;4.70;;;2.58;;
73454;SDS011;61690;51.824;6.306;2023-06-14T12:31:50;6.67;;;2.43;;
73454;SDS011;61690;51.824;6.306;2023-06-14T12:34:15;5.00;;;2.50;;
73454;SDS011;61690;51.824;6.306;2023-06-14T12:36:40;6.67;;;2.70;;
73454;SDS011;61690;51.824;6.306;2023-06-14T12:39:09;5.07;;;2.47;;
73454;SDS011;61690;51.824;6.306;2023-06-14T12:41:34;4.83;;;2.37;;
73454;SDS011;61690;51.824;6.306;2023-06-14T12:44:01;5.78;;;2.38;;
73454;SDS011;61690;51.824;6.306;2023-06-14T12:46:29;5.10;;;2.50;;
73454;SDS011;61690;51.824;6.306;2023-06-14T12:48:56;5.70;;;2.38;;
73454;SDS011;61690;51.824;6.306;2023-06-14T12:51:21;4.97;;;2.50;;
73454;SDS011;61690;51.824;6.306;2023-06-14T12:53:47;4.80;;;2.30;;
73454;SDS011;61690;51.824;6.306;2023-06-14T12:56:13;5.15;;;2.97;;
73454;SDS011;61690;51.824;6.306;2023-06-14T12:58:39;5.30;;;3.00;;
73454;SDS011;61690;51.824;6.306;2023-06-14T13:01:04;5.22;;;2.90;;
73454;SDS011;61690;51.824;6.306;2023-06-14T13:03:30;6.40;;;2.70;;
73454;SDS011;61690;51.824;6.306;2023-06-14T13:05:55;6.33;;;3.10;;
73454;SDS011;61690;51.824;6.306;2023-06-14T13:08:21;5.33;;;3.00;;
73454;SDS011;61690;51.824;6.306;2023-06-14T13:10:47;5.60;;;3.08;;
73454;SDS011;61690;51.824;6.306;2023-06-14T13:13:12;5.60;;;3.27;;
73454;SDS011;61690;51.824;6.306;2023-06-14T13:15:38;5.13;;;3.28;;
73454;SDS011;61690;51.824;6.306;2023-06-14T13:18:04;14.33;;;2.97;;
73454;SDS011;61690;51.824;6.306;2023-06-14T13:20:29;6.03;;;2.65;;
73454;SDS011;61690;51.824;6.306;2023-06-14T13:22:54;5.53;;;2.60;;
73454;SDS011;61690;51.824;6.306;2023-06-14T13:25:20;5.40;;;2.90;;
73454;SDS011;61690;51.824;6.306;2023-06-14T13:27:45;6.73;;;3.17;;
73454;SDS011;61690;51.824;6.306;2023-06-14T13:30:10;5.13;;;2.87;;
73454;SDS011;61690;51.824;6.306;2023-06-14T13:32:36;6.25;;;2.90;;
73454;SDS011;61690;51.824;6.306;2023-06-14T13:35:02;5.73;;;3.20;;
73454;SDS011;61690;51.824;6.306;2023-06-14T13:37:29;4.78;;;2.80;;
73454;SDS011;61690;51.824;6.306;2023-06-14T13:39:54;6.57;;;2.97;;
73454;SDS011;61690;51.824;6.306;2023-06-14T13:42:20;6.03;;;2.78;;
73454;SDS011;61690;51.824;6.306;2023-06-14T13:44:45;4.87;;;2.87;;
73454;SDS011;61690;51.824;6.306;2023-06-14T13:47:10;5.60;;;2.90;;
73454;SDS011;61690;51.824;6.306;2023-06-14T13:49:36;5.37;;;2.87;;
73454;SDS011;61690;51.824;6.306;2023-06-14T13:52:02;4.80;;;2.60;;
73454;SDS011;61690;51.824;6.306;2023-06-14T13:54:27;5.13;;;3.00;;
73454;SDS011;61690;51.824;6.306;2023-06-14T13:56:53;6.30;;;2.90;;
73454;SDS011;61690;51.824;6.306;2023-06-14T13:59:18;5.77;;;3.00;;
73454;SDS011;61690;51.824;6.306;2023-06-14T14:01:44;6.17;;;3.10;;
73454;SDS011;61690;51.824;6.306;2023-06-14T14:04:09;6.07;;;2.97;;
73454;SDS011;61690;51.824;6.306;2023-06-14T14:06:34;6.63;;;2.47;;
73454;SDS011;61690;51.824;6.306;2023-06-14T14:09:00;5.22;;;2.70;;
73454;SDS011;61690;51.824;6.306;2023-06-14T14:11:25;5.10;;;2.80;;
73454;SDS011;61690;51.824;6.306;2023-06-14T14:13:50;6.50;;;2.80;;
73454;SDS011;61690;51.824;6.306;2023-06-14T14:16:16;6.73;;;2.80;;
73454;SDS011;61690;51.824;6.306;2023-06-14T14:18:41;6.03;;;2.83;;
73454;SDS011;61690;51.824;6.306;2023-06-14T14:21:06;6.13;;;3.00;;
73454;SDS011;61690;51.824;6.306;2023-06-14T14:23:32;6.10;;;2.80;;
73454;SDS011;61690;51.824;6.306;2023-06-14T14:25:57;5.90;;;2.83;;
73454;SDS011;61690;51.824;6.306;2023-06-14T14:28:23;6.00;;;2.70;;
73454;SDS011;61690;51.824;6.306;2023-06-14T14:30:48;6.07;;;2.80;;
73454;SDS011;61690;51.824;6.306;2023-06-14T14:33:14;5.00;;;2.90;;
73454;SDS011;61690;51.824;6.306;2023-06-14T14:35:44;5.57;;;2.53;;
73454;SDS011;61690;51.824;6.306;2023-06-14T14:38:14;5.32;;;2.53;;
73454;SDS011;61690;51.824;6.306;2023-06-14T14:40:40;4.65;;;2.58;;
73454;SDS011;61690;51.824;6.306;2023-06-14T14:43:06;5.10;;;2.83;;
73454;SDS011;61690;51.824;6.306;2023-06-14T14:45:32;5.27;;;2.53;;
73454;SDS011;61690;51.824;6.306;2023-06-14T14:47:57;4.93;;;2.53;;
73454;SDS011;61690;51.824;6.306;2023-06-14T14:50:22;6.50;;;2.40;;
73454;SDS011;61690;51.824;6.306;2023-06-14T14:52:48;5.17;;;2.53;;
73454;SDS011;61690;51.824;6.306;2023-06-14T14:55:13;6.33;;;2.73;;
73454;SDS011;61690;51.824;6.306;2023-06-14T14:57:38;5.67;;;2.60;;
73454;SDS011;61690;51.824;6.306;2023-06-14T15:00:04;6.22;;;2.67;;